Hlavní strana
METAR-TAF:

METAR-TAF

Letiště :

Rovaniemi, Finsko

zeměpisná šířka: 66-34N, zeměpisná délka: 025-50E, výška: 197 m

Aktuální stav počasí

Zpráva byla vytvořena před 27 minutami, v 03:50 UTC
Severoseverovýchodní vítr 6 kt
Teplota 0°C
Vlhkost vzduchu 69%
Tlak 1042 hPa
Viditelnost 10 km a více
Skoro jasno ve výšce 2800 ft
Polojasno ve výšce 23000 ft

METAR: EFRO 180350Z AUTO 02006KT 9999 FEW028 SCT230 00/M05 Q1042

Čas: 06:17 (04:17 UTC)

Předpověď počasí

Zpráva byla vytvořena před 1 hodinou a 54 minutami, v 02:23 UTC
Předpověď platná od 18 v 03 UTC do 19 v 03 UTC
Severoseverovýchodní vítr 12 kt
Viditelnost 10 km a více
Oblačno až skoro zataženo ve výšce 2500 ft
Změna
od 18 v 11 UTC do 18 v 13 UTC
vítr z různých směrů 2 kt

TAF: EFRO 180223Z 1803/1903 02012KT 9999 BKN025 BECMG 1811/1813 VRB02KT

Stav a předpovědi počasí z více než 4 000 letišť (zprávy METAR a TAF).

Červené a žluté tečky na mapě představují dostupné meteorologické stanice.

Když kurzor umístíte na tečku, zobrazí se název stanice.

Pak kliknutím zobrazíte stav a předpověď počasí.

Chcete-li změnit mapu, kliknutím na zelené tlačítko se znaménkem +mapu přiblížíte, kliknutím na zelené tlačítko se znaménkem – mapu oddálíte a kliknutím na zelené šipky přejdete na sousední mapy.


METAR-TAF: